Kansas City, Missouri
Current Conditions -  °F | °C
As of 12:54 PM on Monday 22 Dec 2014 (Local Time) from KMKC Reporting Station
Light Rain Light Rain  
Wind Chill:   Ceiling: 600
Heat Index:   Visibility: 3mi
Dew Point:   Wind: 7mph
Humidity: 93%   Direction: 200°SSW
Pressure: 29.48"   Gusts: NA
Location:  39.1°N, 94.58°W
Report Text: KMKC 221854Z 20006KT 3SM -RA BR OVC006 07/06 A2948 RMK AO2 RAB10 SLP983 P0000 T00720061
Loading
Personal Weather Stations






























Interactive Weather Map New forecast layout! Learn more

10-Day Weather Forecast

Advertisements
Track Severe Weather on mobile